TimeCST,TemperatureF,Dew PointF,Humidity,Sea Level PressureIn,VisibilityMPH,Wind Direction,Wind SpeedMPH,Gust SpeedMPH,PrecipitationIn,Events,Conditions,WindDirDegrees,DateUTC
12:51 AM,32.0,30.2,93,29.83,3.0,SE,3.5,-,N/A,,Overcast,140,2013-02-22 06:51:00
12:54 AM,32.0,30.9,96,29.84,3.0,SE,4.6,-,N/A,,Overcast,140,2013-02-22 06:54:00
1:54 AM,32.0,30.0,92,29.83,4.0,ESE,3.5,-,N/A,,Overcast,110,2013-02-22 07:54:00
2:54 AM,32.0,30.0,92,29.82,3.0,Calm,Calm,-,N/A,,Overcast,0,2013-02-22 08:54:00
3:08 AM,30.2,30.2,100,29.80,2.5,Calm,Calm,-,N/A,,Overcast,0,2013-02-22 09:08:00
3:20 AM,30.2,30.2,100,29.80,3.0,SE,3.5,-,N/A,,Overcast,130,2013-02-22 09:20:00
3:54 AM,32.0,30.9,96,29.82,4.0,Calm,Calm,-,N/A,,Overcast,0,2013-02-22 09:54:00
4:31 AM,32.0,30.2,93,29.81,5.0,Calm,Calm,-,N/A,,Overcast,0,2013-02-22 10:31:00
4:54 AM,32.0,30.9,96,29.83,7.0,SW,3.5,-,N/A,,Overcast,220,2013-02-22 10:54:00
5:54 AM,33.1,30.9,92,29.84,10.0,SW,9.2,-,N/A,,Overcast,230,2013-02-22 11:54:00
6:05 AM,33.8,30.2,87,29.83,10.0,SW,8.1,-,N/A,,Overcast,230,2013-02-22 12:05:00
6:54 AM,33.1,30.9,92,29.86,10.0,SW,9.2,-,N/A,,Overcast,220,2013-02-22 12:54:00
7:24 AM,33.8,30.2,87,29.87,10.0,SSW,10.4,-,N/A,,Overcast,210,2013-02-22 13:24:00
7:54 AM,34.0,30.9,89,29.89,10.0,SW,8.1,-,N/A,,Overcast,220,2013-02-22 13:54:00
8:28 AM,33.8,30.2,87,29.89,10.0,SW,6.9,-,N/A,,Overcast,220,2013-02-22 14:28:00
8:54 AM,34.0,30.9,89,29.91,10.0,SW,9.2,-,0.01,,Overcast,230,2013-02-22 14:54:00
9:28 AM,35.6,30.2,81,29.91,10.0,SW,12.7,-,0.02,,Overcast,230,2013-02-22 15:28:00
9:54 AM,35.1,30.0,82,29.92,10.0,WSW,15.0,-,0.05,,Overcast,240,2013-02-22 15:54:00
10:40 AM,33.8,28.4,81,29.94,9.0,West,17.3,-,0.06,,Overcast,260,2013-02-22 16:40:00
11:30 AM,33.8,26.6,75,29.95,10.0,West,17.3,21.9,0.03,,Overcast,260,2013-02-22 17:30:00
11:51 AM,33.8,28.4,81,29.96,10.0,WSW,16.1,-,0.06,,Overcast,250,2013-02-22 17:51:00
11:54 AM,33.1,27.0,78,29.97,10.0,WSW,15.0,-,0.06,,Overcast,250,2013-02-22 17:54:00
12:43 PM,33.8,26.6,75,29.96,10.0,West,16.1,-,0.04,,Overcast,270,2013-02-22 18:43:00
12:54 PM,32.0,27.0,82,29.98,10.0,WSW,15.0,-,0.06,,Overcast,250,2013-02-22 18:54:00
1:27 PM,33.8,24.8,70,29.97,10.0,WSW,16.1,-,0.03,,Overcast,250,2013-02-22 19:27:00
1:39 PM,33.8,24.8,70,29.97,10.0,West,18.4,-,0.03,,Overcast,260,2013-02-22 19:39:00
1:54 PM,32.0,24.1,73,29.99,10.0,West,16.1,-,0.04,,Overcast,260,2013-02-22 19:54:00
2:54 PM,32.0,23.0,69,30.00,10.0,West,15.0,-,0.02,,Overcast,280,2013-02-22 20:54:00
3:15 PM,32.0,23.0,69,29.99,10.0,West,13.8,-,0.01,,Overcast,260,2013-02-22 21:15:00
3:54 PM,32.0,21.0,64,30.01,10.0,West,12.7,-,0.02,,Overcast,280,2013-02-22 21:54:00
4:54 PM,30.9,21.0,67,30.02,10.0,West,9.2,-,0.01,,Mostly Cloudy,280,2013-02-22 22:54:00
5:54 PM,28.0,19.0,69,30.04,10.0,WNW,8.1,-,N/A,,Clear,300,2013-02-22 23:54:00
6:54 PM,26.1,18.0,71,30.05,10.0,WNW,9.2,-,N/A,,Clear,290,2013-02-23 00:54:00
7:54 PM,25.0,18.0,75,30.06,10.0,WNW,9.2,-,N/A,,Clear,290,2013-02-23 01:54:00
8:54 PM,25.0,17.1,72,30.07,10.0,West,8.1,-,N/A,,Clear,280,2013-02-23 02:54:00
9:54 PM,23.0,16.0,74,30.09,10.0,West,6.9,-,N/A,,Clear,260,2013-02-23 03:54:00
10:23 PM,21.2,15.8,80,30.08,10.0,WSW,5.8,-,N/A,,Mostly Cloudy,250,2013-02-23 04:23:00
10:54 PM,19.9,14.0,78,30.09,9.0,WSW,4.6,-,N/A,,Mostly Cloudy,250,2013-02-23 04:54:00
11:18 PM,17.6,12.2,79,30.08,9.0,SW,3.5,-,N/A,,Scattered Clouds,230,2013-02-23 05:18:00
11:54 PM,17.1,12.0,81,30.09,9.0,Calm,Calm,-,N/A,,Clear,0,2013-02-23 05:54:00